createdAt,value
2023-10-06T00:00:35.307Z,7.47
2023-10-06T00:03:07.521Z,7.44
2023-10-06T00:05:35.104Z,7.39
2023-10-06T00:08:06.317Z,7.30
2023-10-06T00:10:33.512Z,7.22
2023-10-06T00:13:00.717Z,7.21
2023-10-06T00:15:39.810Z,7.29
2023-10-06T00:18:13.840Z,7.28
2023-10-06T00:20:40.899Z,7.11
2023-10-06T00:23:16.072Z,6.86
2023-10-06T00:25:44.429Z,6.83
2023-10-06T00:28:21.377Z,6.76
2023-10-06T00:30:49.824Z,6.73
2023-10-06T00:33:17.088Z,6.56
2023-10-06T00:35:45.586Z,6.52
2023-10-06T00:38:19.124Z,6.44
2023-10-06T00:40:57.575Z,6.43
2023-10-06T00:43:36.507Z,6.42
2023-10-06T00:46:08.892Z,6.42
2023-10-06T00:48:41.026Z,6.37
2023-10-06T00:51:23.592Z,6.34
2023-10-06T00:53:54.244Z,6.25
2023-10-06T00:56:25.021Z,6.30
2023-10-06T00:58:53.640Z,6.31
2023-10-06T01:01:21.269Z,6.37
2023-10-06T01:04:02.445Z,6.34
2023-10-06T01:06:40.476Z,6.14
2023-10-06T01:09:13.080Z,6.13
2023-10-06T01:11:47.584Z,6.03
2023-10-06T01:14:23.379Z,6.00
2023-10-06T01:16:52.311Z,5.97
2023-10-06T01:19:25.350Z,6.04
2023-10-06T01:21:55.319Z,6.02
2023-10-06T01:24:30.000Z,5.92
2023-10-06T01:27:01.859Z,5.90
2023-10-06T01:29:32.363Z,6.00
2023-10-06T01:32:06.272Z,6.06
2023-10-06T01:34:40.435Z,5.93
2023-10-06T01:37:11.752Z,5.96
2023-10-06T01:39:39.885Z,5.98
2023-10-06T01:42:09.343Z,6.02
2023-10-06T01:44:36.554Z,5.95
2023-10-06T01:47:07.010Z,5.90
2023-10-06T01:49:38.017Z,5.88
2023-10-06T01:52:10.008Z,5.71
2023-10-06T01:54:37.350Z,5.65
2023-10-06T01:57:12.620Z,5.60
2023-10-06T01:59:39.557Z,5.60
2023-10-06T02:02:14.835Z,5.57
2023-10-06T02:04:46.967Z,5.67
2023-10-06T02:07:14.542Z,5.65
2023-10-06T02:09:41.785Z,5.74
2023-10-06T02:12:09.762Z,5.75
2023-10-06T02:14:37.359Z,5.80
2023-10-06T02:17:07.879Z,5.71
2023-10-06T02:19:35.731Z,5.58
2023-10-06T02:22:04.853Z,5.54
2023-10-06T02:24:31.787Z,5.51
2023-10-06T02:26:59.806Z,5.50
2023-10-06T02:29:28.222Z,5.51
2023-10-06T02:32:02.723Z,5.45
2023-10-06T02:34:36.977Z,5.53
2023-10-06T02:37:05.803Z,5.45
2023-10-06T02:39:35.742Z,5.50
2023-10-06T02:42:09.123Z,5.46
2023-10-06T02:44:40.666Z,5.45
2023-10-06T02:47:11.636Z,5.26
2023-10-06T02:49:42.681Z,5.23
2023-10-06T02:52:31.168Z,5.22
2023-10-06T02:55:06.057Z,5.23
2023-10-06T02:57:37.117Z,5.30
2023-10-06T03:00:38.655Z,5.29
2023-10-06T03:03:13.797Z,5.20
2023-10-06T03:05:41.436Z,5.22
2023-10-06T03:08:11.315Z,5.15
2023-10-06T03:10:44.596Z,5.08
2023-10-06T03:13:44.720Z,5.04
2023-10-06T03:16:13.015Z,4.87
2023-10-06T03:18:41.207Z,4.87
2023-10-06T03:21:17.213Z,4.74
2023-10-06T03:23:48.822Z,4.82
2023-10-06T03:26:35.201Z,4.80
2023-10-06T03:29:12.818Z,4.76
2023-10-06T03:31:46.551Z,4.73
2023-10-06T03:34:21.662Z,4.75
2023-10-06T03:36:53.442Z,4.75
2023-10-06T03:39:32.352Z,4.62
2023-10-06T03:42:09.692Z,4.56
2023-10-06T03:44:36.650Z,4.48
2023-10-06T03:47:09.163Z,4.48
2023-10-06T03:49:36.746Z,4.42
2023-10-06T03:52:11.228Z,4.44
2023-10-06T03:54:38.668Z,4.44
2023-10-06T03:59:16.998Z,4.32
2023-10-06T04:01:47.784Z,4.24
2023-10-06T04:04:23.811Z,4.25
2023-10-06T04:06:51.531Z,4.21
2023-10-06T04:09:29.452Z,4.22
2023-10-06T04:12:02.820Z,4.29
2023-10-06T04:14:33.197Z,4.36
2023-10-06T04:17:02.707Z,4.42
2023-10-06T04:19:30.517Z,4.43
2023-10-06T04:21:57.511Z,4.41
2023-10-06T04:24:24.566Z,4.48
2023-10-06T04:26:51.522Z,4.37
2023-10-06T04:29:20.164Z,4.37
2023-10-06T04:31:47.631Z,4.36
2023-10-06T04:34:15.466Z,4.39
2023-10-06T04:36:44.236Z,4.37
2023-10-06T04:39:17.866Z,4.39
2023-10-06T04:41:44.966Z,4.42
2023-10-06T04:44:11.931Z,4.39
2023-10-06T04:46:39.055Z,4.28
2023-10-06T04:49:07.163Z,4.43
2023-10-06T04:51:35.679Z,4.39
2023-10-06T04:54:04.194Z,4.35
2023-10-06T04:56:33.963Z,4.25
2023-10-06T04:59:01.584Z,4.09
2023-10-06T05:01:32.332Z,4.07
2023-10-06T05:03:59.527Z,4.03
2023-10-06T05:06:26.996Z,3.99
2023-10-06T05:08:53.961Z,3.87
2023-10-06T05:11:22.051Z,4.01
2023-10-06T05:13:51.289Z,3.95
2023-10-06T05:16:20.533Z,3.79
2023-10-06T05:18:49.088Z,3.74
2023-10-06T05:21:16.917Z,3.70
2023-10-06T05:23:46.723Z,3.73
2023-10-06T05:26:16.777Z,3.64
2023-10-06T05:28:45.014Z,3.63
2023-10-06T05:31:13.361Z,3.45
2023-10-06T05:33:42.450Z,3.45
2023-10-06T05:36:16.705Z,3.39
2023-10-06T05:38:46.986Z,3.42
2023-10-06T05:41:14.709Z,3.47
2023-10-06T05:43:42.763Z,3.41
2023-10-06T05:46:11.142Z,3.38
2023-10-06T05:48:40.036Z,3.39
2023-10-06T05:51:10.878Z,3.37
2023-10-06T05:53:45.412Z,3.32
2023-10-06T05:56:13.458Z,3.30
2023-10-06T05:58:42.761Z,3.31
2023-10-06T06:01:19.818Z,3.40
2023-10-06T06:03:48.172Z,3.43
2023-10-06T06:06:17.483Z,3.42
2023-10-06T06:08:49.258Z,3.38
2023-10-06T06:11:18.375Z,3.47
2023-10-06T06:13:52.782Z,3.53
2023-10-06T06:16:23.032Z,3.65
2023-10-06T06:18:50.252Z,3.56
2023-10-06T06:21:17.873Z,3.57
2023-10-06T06:23:47.771Z,3.60
2023-10-06T06:26:18.540Z,3.63
2023-10-06T06:28:45.990Z,3.75
2023-10-06T06:31:20.058Z,3.84
2023-10-06T06:33:58.624Z,3.91
2023-10-06T06:36:27.960Z,3.96
2023-10-06T06:38:55.708Z,4.05
2023-10-06T06:41:23.075Z,4.06
2023-10-06T06:43:50.402Z,4.10
2023-10-06T06:46:18.521Z,4.25
2023-10-06T06:48:47.375Z,4.31
2023-10-06T06:51:14.484Z,4.34
2023-10-06T06:53:41.409Z,4.42
2023-10-06T06:56:12.261Z,4.44
2023-10-06T06:58:39.851Z,4.64
2023-10-06T07:01:16.252Z,4.66
2023-10-06T07:03:43.751Z,4.75
2023-10-06T07:06:18.153Z,4.82
2023-10-06T07:08:48.141Z,4.90
2023-10-06T07:11:17.248Z,4.96
2023-10-06T07:13:46.957Z,5.03
2023-10-06T07:16:16.061Z,5.09
2023-10-06T07:18:43.282Z,5.20
2023-10-06T07:21:11.590Z,5.28
2023-10-06T07:23:41.249Z,5.38
2023-10-06T07:26:12.612Z,5.49
2023-10-06T07:28:41.355Z,5.59
2023-10-06T07:31:15.042Z,5.73
2023-10-06T07:33:45.652Z,5.84
2023-10-06T07:36:19.509Z,5.95
2023-10-06T07:38:47.715Z,6.11
2023-10-06T07:41:24.978Z,6.27
2023-10-06T07:43:53.653Z,6.43
2023-10-06T07:46:20.792Z,6.64
2023-10-06T07:48:48.306Z,6.76
2023-10-06T07:51:15.462Z,6.94
2023-10-06T07:53:42.577Z,7.06
2023-10-06T07:56:10.171Z,7.23
2023-10-06T07:58:45.130Z,7.42
2023-10-06T08:01:14.822Z,7.60
2023-10-06T08:03:46.914Z,7.85
2023-10-06T08:06:15.345Z,8.01
2023-10-06T08:08:42.650Z,8.14
2023-10-06T08:11:10.761Z,8.36
2023-10-06T08:13:39.527Z,8.51
2023-10-06T08:16:09.854Z,8.88
2023-10-06T08:18:37.076Z,9.05
2023-10-06T08:21:04.823Z,9.29
2023-10-06T08:23:33.071Z,9.60
2023-10-06T08:26:02.661Z,9.80
2023-10-06T08:28:33.159Z,10.06
2023-10-06T08:31:04.725Z,10.33
2023-10-06T08:33:33.181Z,10.55
2023-10-06T08:36:03.568Z,10.82
2023-10-06T08:38:31.848Z,10.97
2023-10-06T08:41:04.891Z,11.23
2023-10-06T08:43:33.996Z,11.40
2023-10-06T08:46:02.085Z,11.59
2023-10-06T08:48:33.963Z,11.80
2023-10-06T08:51:05.137Z,11.94
2023-10-06T08:53:33.490Z,12.09
2023-10-06T08:56:00.542Z,12.33
2023-10-06T08:58:28.291Z,12.59
2023-10-06T09:00:57.319Z,12.84
2023-10-06T09:03:27.564Z,13.11
2023-10-06T09:05:55.295Z,13.49
2023-10-06T09:08:22.574Z,13.78
2023-10-06T09:10:52.349Z,14.07
2023-10-06T09:13:22.143Z,14.41
2023-10-06T09:16:09.953Z,14.68
2023-10-06T09:21:27.485Z,15.08
2023-10-06T09:23:55.794Z,15.29
2023-10-06T09:26:33.008Z,15.56
2023-10-06T09:29:03.540Z,15.69
2023-10-06T09:31:46.551Z,15.96
2023-10-06T09:34:25.256Z,16.21
2023-10-06T09:36:53.072Z,16.12
2023-10-06T09:39:39.094Z,16.20
2023-10-06T09:42:11.328Z,16.13
2023-10-06T09:44:40.996Z,16.19
2023-10-06T09:47:10.093Z,16.46
2023-10-06T09:49:38.858Z,16.74
2023-10-06T09:52:07.155Z,16.90
2023-10-06T09:54:36.472Z,17.02
2023-10-06T09:57:04.707Z,17.15
2023-10-06T09:59:34.415Z,17.06
2023-10-06T10:02:06.703Z,17.31
2023-10-06T10:04:34.738Z,17.56
2023-10-06T10:07:03.659Z,17.65
2023-10-06T10:09:36.572Z,17.77
2023-10-06T10:12:18.906Z,17.99
2023-10-06T10:15:13.473Z,18.22
2023-10-06T10:18:01.583Z,18.43
2023-10-06T10:20:28.973Z,18.58
2023-10-06T10:23:00.597Z,18.70
2023-10-06T10:25:31.764Z,18.71
2023-10-06T10:28:20.713Z,18.48
2023-10-06T10:31:03.031Z,18.67
2023-10-06T10:33:38.603Z,18.79
2023-10-06T10:36:15.949Z,19.11
2023-10-06T10:38:43.908Z,19.22
2023-10-06T10:41:12.525Z,19.24
2023-10-06T10:43:42.741Z,19.42
2023-10-06T10:46:10.359Z,19.53
2023-10-06T10:48:49.091Z,19.68
2023-10-06T10:51:16.672Z,19.83
2023-10-06T10:53:46.820Z,19.95
2023-10-06T10:56:29.088Z,20.15
2023-10-06T10:58:56.806Z,20.09
2023-10-06T11:01:37.649Z,20.01
2023-10-06T11:04:22.847Z,20.26
2023-10-06T11:06:51.504Z,20.47
2023-10-06T11:09:41.269Z,20.53
2023-10-06T11:12:24.382Z,20.64
2023-10-06T11:15:04.100Z,20.93
2023-10-06T11:17:33.526Z,20.95
2023-10-06T11:20:24.082Z,21.21
2023-10-06T11:23:03.008Z,21.24
2023-10-06T11:25:34.448Z,21.41
2023-10-06T11:28:06.260Z,21.56
2023-10-06T11:30:35.538Z,21.36
2023-10-06T11:33:05.280Z,21.41
2023-10-06T11:35:34.623Z,21.54
2023-10-06T11:38:04.858Z,21.78
2023-10-06T11:40:34.077Z,21.97
2023-10-06T11:43:15.935Z,22.20
2023-10-06T11:45:44.217Z,22.24
2023-10-06T11:48:31.189Z,22.15
2023-10-06T11:51:08.665Z,22.36
2023-10-06T11:53:38.577Z,22.41
2023-10-06T11:56:15.218Z,22.24
2023-10-06T11:58:43.991Z,22.42
2023-10-06T12:01:34.525Z,22.58
2023-10-06T12:04:02.393Z,22.56
2023-10-06T12:06:42.462Z,22.48
2023-10-06T12:09:14.366Z,22.58
2023-10-06T12:11:42.076Z,22.56
2023-10-06T12:14:09.367Z,22.52
2023-10-06T12:16:37.859Z,22.80
2023-10-06T12:19:05.079Z,23.08
2023-10-06T12:21:32.125Z,23.30
2023-10-06T12:23:59.705Z,23.46
2023-10-06T12:26:26.725Z,23.45
2023-10-06T12:28:55.931Z,23.52
2023-10-06T12:31:23.758Z,23.68
2023-10-06T12:33:57.168Z,23.62
2023-10-06T12:36:25.335Z,23.76
2023-10-06T12:38:52.646Z,23.61
2023-10-06T12:41:19.786Z,23.59
2023-10-06T12:43:49.256Z,23.81
2023-10-06T12:46:17.259Z,23.89
2023-10-06T12:48:44.325Z,23.80
2023-10-06T12:51:14.478Z,23.77
2023-10-06T12:53:42.462Z,23.84
2023-10-06T12:56:11.152Z,23.99
2023-10-06T12:58:39.298Z,24.16
2023-10-06T13:01:09.865Z,24.47
2023-10-06T13:03:38.142Z,24.54
2023-10-06T13:06:06.298Z,24.76
2023-10-06T13:08:34.550Z,24.77
2023-10-06T13:11:05.230Z,24.91
2023-10-06T13:13:35.307Z,24.93
2023-10-06T13:16:10.153Z,25.06
2023-10-06T13:18:40.045Z,25.07
2023-10-06T13:21:09.810Z,25.14
2023-10-06T13:23:38.199Z,25.18
2023-10-06T13:26:06.267Z,25.22
2023-10-06T13:28:33.696Z,25.27
2023-10-06T13:31:00.787Z,25.39
2023-10-06T13:33:27.915Z,25.19
2023-10-06T13:35:55.088Z,25.35
2023-10-06T13:38:23.002Z,25.27
2023-10-06T13:40:49.988Z,25.16
2023-10-06T13:43:16.994Z,25.24
2023-10-06T13:45:46.986Z,25.25
2023-10-06T13:48:17.474Z,25.34
2023-10-06T13:50:44.873Z,25.30
2023-10-06T13:53:11.866Z,25.38
2023-10-06T13:55:39.056Z,25.53
2023-10-06T13:58:06.403Z,25.56
2023-10-06T14:00:34.097Z,25.56
2023-10-06T14:03:03.025Z,25.52
2023-10-06T14:05:33.873Z,25.55
2023-10-06T14:08:05.757Z,25.63
2023-10-06T14:10:37.372Z,25.66
2023-10-06T14:13:10.038Z,25.70
2023-10-06T14:15:46.643Z,25.72
2023-10-06T14:18:15.660Z,25.76
2023-10-06T14:20:46.695Z,25.82
2023-10-06T14:23:15.963Z,25.97
2023-10-06T14:25:44.209Z,25.88
2023-10-06T14:28:11.932Z,26.04
2023-10-06T14:30:44.150Z,26.05
2023-10-06T14:33:24.048Z,26.17
2023-10-06T14:36:01.064Z,26.25
2023-10-06T14:38:34.339Z,26.35
2023-10-06T14:41:16.450Z,26.37
2023-10-06T14:44:06.420Z,26.26
2023-10-06T14:46:34.883Z,26.18
2023-10-06T14:49:08.721Z,26.13
2023-10-06T14:51:36.215Z,26.12
2023-10-06T14:54:05.308Z,26.11
2023-10-06T14:56:32.916Z,25.81
2023-10-06T14:59:00.074Z,25.76
2023-10-06T15:01:32.358Z,25.56
2023-10-06T15:04:03.198Z,25.32
2023-10-06T15:06:34.742Z,25.19
2023-10-06T15:09:01.892Z,24.98
2023-10-06T15:11:29.729Z,24.79
2023-10-06T15:13:57.476Z,24.66
2023-10-06T15:16:24.698Z,24.50
2023-10-06T15:18:51.978Z,24.31
2023-10-06T15:21:25.021Z,24.21
2023-10-06T15:23:54.549Z,23.89
2023-10-06T15:26:24.797Z,23.79
2023-10-06T15:28:51.823Z,23.63
2023-10-06T15:31:18.878Z,23.32
2023-10-06T15:33:45.962Z,23.33
2023-10-06T15:36:18.362Z,23.29
2023-10-06T15:38:48.330Z,23.18
2023-10-06T15:41:17.297Z,23.01
2023-10-06T15:43:49.263Z,22.82
2023-10-06T15:46:21.273Z,22.70
2023-10-06T15:48:48.284Z,22.62
2023-10-06T15:51:20.061Z,22.46
2023-10-06T15:53:47.082Z,22.30
2023-10-06T15:56:15.846Z,22.16
2023-10-06T15:58:51.426Z,22.01
2023-10-06T16:01:19.514Z,21.91
2023-10-06T16:03:48.848Z,21.83
2023-10-06T16:06:16.728Z,21.71
2023-10-06T16:08:45.115Z,21.60
2023-10-06T16:11:12.588Z,21.42
2023-10-06T16:13:43.465Z,21.20
2023-10-06T16:16:17.878Z,21.10
2023-10-06T16:18:47.965Z,20.86
2023-10-06T16:21:17.244Z,20.77
2023-10-06T16:23:48.452Z,20.64
2023-10-06T16:26:16.158Z,20.53
2023-10-06T16:28:44.725Z,20.32
2023-10-06T16:31:12.315Z,20.17
2023-10-06T16:33:39.429Z,20.06
2023-10-06T16:36:07.806Z,19.83
2023-10-06T16:38:35.063Z,19.68
2023-10-06T16:41:02.889Z,19.71
2023-10-06T16:43:36.172Z,19.47
2023-10-06T16:46:04.138Z,19.32
2023-10-06T16:48:31.267Z,19.20
2023-10-06T16:50:58.596Z,19.05
2023-10-06T16:53:25.758Z,18.88
2023-10-06T16:55:59.744Z,18.77
2023-10-06T16:58:28.225Z,18.59
2023-10-06T17:00:58.264Z,18.54
2023-10-06T17:03:28.208Z,18.37
2023-10-06T17:05:56.588Z,18.14
2023-10-06T17:08:23.605Z,18.03
2023-10-06T17:10:50.984Z,17.94
2023-10-06T17:13:23.963Z,17.83
2023-10-06T17:15:51.380Z,17.67
2023-10-06T17:18:18.474Z,17.60
2023-10-06T17:20:46.042Z,17.51
2023-10-06T17:23:13.170Z,17.34
2023-10-06T17:25:40.837Z,17.28
2023-10-06T17:28:08.929Z,17.09
2023-10-06T17:30:37.667Z,16.99
2023-10-06T17:33:08.573Z,16.93
2023-10-06T17:35:36.289Z,16.75
2023-10-06T17:38:03.487Z,16.62
2023-10-06T17:40:31.164Z,16.51
2023-10-06T17:42:58.133Z,16.39
2023-10-06T17:45:26.406Z,16.36
2023-10-06T17:47:56.608Z,16.22
2023-10-06T17:50:24.153Z,16.13
2023-10-06T17:52:51.280Z,15.91
2023-10-06T17:55:18.686Z,15.84
2023-10-06T17:57:47.575Z,15.70
2023-10-06T18:00:17.596Z,15.58
2023-10-06T18:02:45.055Z,15.41
2023-10-06T18:05:12.244Z,15.45
2023-10-06T18:07:39.760Z,15.28
2023-10-06T18:10:09.870Z,15.20
2023-10-06T18:12:38.391Z,15.04
2023-10-06T18:15:07.121Z,14.92
2023-10-06T18:17:36.795Z,14.90
2023-10-06T18:20:04.944Z,14.74
2023-10-06T18:22:32.129Z,14.73
2023-10-06T18:24:59.140Z,14.62
2023-10-06T18:27:26.171Z,14.50
2023-10-06T18:29:53.162Z,14.50
2023-10-06T18:32:21.617Z,14.36
2023-10-06T18:34:48.756Z,14.29
2023-10-06T18:37:15.933Z,14.20
2023-10-06T18:39:47.805Z,14.03
2023-10-06T18:42:15.008Z,13.96
2023-10-06T18:44:42.004Z,13.90
2023-10-06T18:47:09.038Z,13.81
2023-10-06T18:49:36.111Z,13.73
2023-10-06T18:52:03.146Z,13.67
2023-10-06T18:54:30.934Z,13.54
2023-10-06T18:56:57.988Z,13.48
2023-10-06T18:59:25.003Z,13.43
2023-10-06T19:01:52.027Z,13.31
2023-10-06T19:04:19.329Z,13.24
2023-10-06T19:06:46.338Z,13.18
2023-10-06T19:09:16.572Z,12.92
2023-10-06T19:11:43.910Z,12.93
2023-10-06T19:14:11.762Z,12.78
2023-10-06T19:16:38.941Z,12.73
2023-10-06T19:19:06.088Z,12.69
2023-10-06T19:21:33.070Z,12.61
2023-10-06T19:24:02.827Z,12.40
2023-10-06T19:26:29.805Z,12.28
2023-10-06T19:28:58.246Z,12.16
2023-10-06T19:31:25.368Z,12.04
2023-10-06T19:33:53.069Z,11.91
2023-10-06T19:36:23.436Z,11.77
2023-10-06T19:38:52.057Z,11.61
2023-10-06T19:41:19.716Z,11.47
2023-10-06T19:43:46.829Z,11.44
2023-10-06T19:46:15.650Z,11.46
2023-10-06T19:48:54.511Z,11.38
2023-10-06T19:51:22.526Z,11.39
2023-10-06T19:53:49.584Z,11.29
2023-10-06T19:56:16.603Z,11.13
2023-10-06T19:58:44.288Z,11.03
2023-10-06T20:01:11.371Z,10.97
2023-10-06T20:03:44.264Z,10.98
2023-10-06T20:06:12.031Z,10.88
2023-10-06T20:08:39.051Z,10.91
2023-10-06T20:11:06.124Z,10.83
2023-10-06T20:13:34.759Z,10.72
2023-10-06T20:16:17.645Z,10.68
2023-10-06T20:18:44.743Z,10.57
2023-10-06T20:21:14.667Z,10.55
2023-10-06T20:23:42.046Z,10.50
2023-10-06T20:26:09.045Z,10.44
2023-10-06T20:28:36.078Z,10.35
2023-10-06T20:31:05.600Z,10.25
2023-10-06T20:33:32.834Z,10.00
2023-10-06T20:36:02.612Z,10.05
2023-10-06T20:38:32.591Z,9.92
2023-10-06T20:40:59.973Z,9.87
2023-10-06T20:43:27.008Z,9.79
2023-10-06T20:45:53.984Z,9.74
2023-10-06T20:48:22.154Z,9.69
2023-10-06T20:50:49.304Z,9.56
2023-10-06T20:53:17.517Z,9.61
2023-10-06T20:55:44.595Z,9.50
2023-10-06T20:58:12.452Z,9.46
2023-10-06T21:00:40.432Z,9.43
2023-10-06T21:03:07.666Z,9.50
2023-10-06T21:05:36.578Z,9.49
2023-10-06T21:08:05.154Z,9.35
2023-10-06T21:10:33.783Z,9.33
2023-10-06T21:13:01.415Z,9.23
2023-10-06T21:15:28.388Z,9.25
2023-10-06T21:17:56.228Z,9.22
2023-10-06T21:20:23.627Z,9.16
2023-10-06T21:22:51.524Z,9.05
2023-10-06T21:25:18.975Z,9.03
2023-10-06T21:27:47.049Z,8.92
2023-10-06T21:30:17.613Z,8.87
2023-10-06T21:32:46.010Z,8.78
2023-10-06T21:35:16.602Z,8.73
2023-10-06T21:37:43.919Z,8.52
2023-10-06T21:40:13.226Z,8.42
2023-10-06T21:42:41.625Z,8.40
2023-10-06T21:45:10.245Z,8.33
2023-10-06T21:47:37.452Z,8.29
2023-10-06T21:50:04.931Z,8.30
2023-10-06T21:52:32.615Z,8.27
2023-10-06T21:55:00.061Z,8.19
2023-10-06T21:57:31.989Z,8.23
2023-10-06T21:59:59.115Z,8.12
2023-10-06T22:02:26.263Z,8.11
2023-10-06T22:04:54.222Z,8.05
2023-10-06T22:07:21.223Z,8.02
2023-10-06T22:09:48.221Z,8.06
2023-10-06T22:12:16.706Z,7.92
2023-10-06T22:14:44.019Z,7.91
2023-10-06T22:17:14.035Z,7.63
2023-10-06T22:19:42.301Z,7.59
2023-10-06T22:22:09.458Z,7.41
2023-10-06T22:24:36.466Z,7.42
2023-10-06T22:27:08.363Z,7.34
2023-10-06T22:29:35.940Z,7.17
2023-10-06T22:32:05.418Z,6.99
2023-10-06T22:34:33.431Z,6.87
2023-10-06T22:37:05.259Z,6.79
2023-10-06T22:39:36.432Z,6.82
2023-10-06T22:42:05.152Z,6.81
2023-10-06T22:44:32.372Z,6.73
2023-10-06T22:46:59.429Z,6.64
2023-10-06T22:49:26.577Z,6.59
2023-10-06T22:51:54.811Z,6.53
2023-10-06T22:54:21.816Z,6.48
2023-10-06T22:56:48.797Z,6.38
2023-10-06T22:59:15.856Z,6.46
2023-10-06T23:01:43.074Z,6.27
2023-10-06T23:04:10.440Z,6.35
2023-10-06T23:06:38.976Z,6.22
2023-10-06T23:09:06.002Z,6.09
2023-10-06T23:11:32.984Z,6.01
2023-10-06T23:14:00.045Z,6.08
2023-10-06T23:16:27.684Z,6.05
2023-10-06T23:18:56.778Z,5.94
2023-10-06T23:21:25.958Z,5.90
2023-10-06T23:23:54.572Z,5.71
2023-10-06T23:26:21.530Z,5.72
2023-10-06T23:28:48.517Z,5.81
2023-10-06T23:31:16.456Z,5.68
2023-10-06T23:33:43.482Z,5.80
2023-10-06T23:36:10.465Z,5.90
2023-10-06T23:38:37.812Z,5.82
2023-10-06T23:41:09.827Z,5.68
2023-10-06T23:43:36.796Z,5.62
2023-10-06T23:46:06.802Z,5.45
2023-10-06T23:48:33.830Z,5.34
2023-10-06T23:51:10.488Z,5.39
2023-10-06T23:53:38.316Z,5.33
2023-10-06T23:56:20.887Z,5.25
2023-10-06T23:58:48.000Z,5.45
